^^
Station Historical Data
Daily Summary for April 13, 2017 Units:  English    Metric   Both
« Previous Day
Next Day »
Daily Weekly Monthly Yearly Custom
  High: Low: Average:
Temperature: 64.2 °F 43.8 °F 53.2 °F
Dew Point: 41.8 °F 19.6 °F 32.9 °F
Humidity: 68 % 25 % 48 %
Wind Speed: 10.9 mph 0.0 mph 3.4 mph
Wind Gust: 17.3 mph - -
Wind:- - SW
Pressure: 30.42 in 30.30 in -
Precipitation: 0.00 in    
Historical Graphs
 
 
Tabular Data for April 13, 2017
Time Temperature Dew Point Pressure Wind Wind Speed Wind Gust Humidity Rainfall Rate (Hourly) solar Conditions
00:03 56.9 °F 41.8 °F 30.30 in NNW 0.9 mph 4.0 mph 57 % 0.00 in 0.0 W/m2 RA
00:08 56.4 °F 41.8 °F 30.31 in North 1.6 mph 4.6 mph 58 % 0.00 in 0.0 W/m2 RA
00:13 55.9 °F 41.8 °F 30.31 in NNE 1.6 mph 9.2 mph 59 % 0.00 in 0.0 W/m2 SCT
00:18 55.5 °F 41.4 °F 30.31 in North 3.8 mph 9.2 mph 59 % 0.00 in 0.0 W/m2 SCT
00:23 55.1 °F 41.5 °F 30.31 in NNW 6.5 mph 12.7 mph 60 % 0.00 in 0.0 W/m2 SCT
00:28 54.7 °F 41.1 °F 30.31 in NNW 4.5 mph 10.4 mph 60 % 0.00 in 0.0 W/m2 SCT
00:33 54.2 °F 41.0 °F 30.32 in North 8.1 mph 11.5 mph 61 % 0.00 in 0.0 W/m2 SCT
00:38 53.9 °F 40.8 °F 30.32 in NW 2.3 mph 8.1 mph 61 % 0.00 in 0.0 W/m2 SCT
00:43 53.7 °F 40.6 °F 30.32 in NNW 3.0 mph 5.0 mph 61 % 0.00 in 0.0 W/m2 SCT
00:48 53.6 °F 40.5 °F 30.33 in North 2.2 mph 4.6 mph 61 % 0.00 in 0.0 W/m2 SCT
00:53 53.3 °F 40.2 °F 30.33 in North 2.2 mph 8.1 mph 61 % 0.00 in 0.0 W/m2 SCT
00:58 52.8 °F 40.1 °F 30.33 in North 3.2 mph 10.4 mph 62 % 0.00 in 0.0 W/m2 SCT
01:03 52.5 °F 39.8 °F 30.33 in NNW 1.0 mph 10.4 mph 62 % 0.00 in 0.0 W/m2 SCT
01:08 52.2 °F 39.6 °F 30.33 in North 0.1 mph 5.0 mph 62 % 0.00 in 0.0 W/m2 SCT
01:13 52.0 °F 39.4 °F 30.33 in North 5.2 mph 10.4 mph 62 % 0.00 in 0.0 W/m2 SCT
01:18 51.9 °F 39.3 °F 30.34 in North 4.2 mph 12.7 mph 62 % 0.00 in 0.0 W/m2 SCT
01:23 51.7 °F 39.1 °F 30.34 in North 2.4 mph 5.8 mph 62 % 0.00 in 0.0 W/m2 SCT
01:28 51.5 °F 39.3 °F 30.34 in NNW 3.6 mph 6.0 mph 63 % 0.00 in 0.0 W/m2 SCT
01:33 51.3 °F 39.1 °F 30.34 in NNE 3.2 mph 8.1 mph 63 % 0.00 in 0.0 W/m2 SCT
01:38 51.1 °F 38.9 °F 30.34 in NNW 1.8 mph 3.0 mph 63 % 0.00 in 0.0 W/m2 SCT
01:43 50.9 °F 38.7 °F 30.35 in NNW 3.9 mph 5.0 mph 63 % 0.00 in 0.0 W/m2 SCT
01:48 50.9 °F 38.7 °F 30.35 in Calm   1.0 mph 63 % 0.00 in 0.0 W/m2 SCT
01:53 50.4 °F 38.3 °F 30.34 in Calm   1.2 mph 63 % 0.00 in 0.0 W/m2 SCT
01:58 50.2 °F 38.1 °F 30.34 in NNW 8.4 mph 13.8 mph 63 % 0.00 in 0.0 W/m2 SCT
02:03 50.0 °F 37.9 °F 30.35 in North 2.0 mph 3.5 mph 63 % 0.00 in 0.0 W/m2 SCT
02:08 49.7 °F 37.6 °F 30.34 in North 3.1 mph 9.2 mph 63 % 0.00 in 0.0 W/m2 SCT
02:13 49.5 °F 37.4 °F 30.34 in North 0.3 mph 3.5 mph 63 % 0.00 in 0.0 W/m2 SCT
02:18 49.3 °F 37.2 °F 30.35 in North 0.5 mph 3.5 mph 63 % 0.00 in 0.0 W/m2 SCT
02:23 49.1 °F 37.0 °F 30.35 in NW 2.0 mph 5.8 mph 63 % 0.00 in 0.0 W/m2 SCT
02:28 49.0 °F 36.9 °F 30.35 in North 2.4 mph 4.6 mph 63 % 0.00 in 0.0 W/m2 SCT
02:33 48.8 °F 36.8 °F 30.35 in North 0.3 mph 4.0 mph 63 % 0.00 in 0.0 W/m2 SCT
02:38 48.6 °F 36.6 °F 30.35 in Calm     63 % 0.00 in 0.0 W/m2 SCT
02:43 48.5 °F 36.5 °F 30.35 in North 4.6 mph 10.4 mph 63 % 0.00 in 0.0 W/m2 SCT
02:48 48.4 °F 36.4 °F 30.35 in NNW 0.6 mph 3.5 mph 63 % 0.00 in 0.0 W/m2 SCT
02:53 48.1 °F 36.5 °F 30.35 in Calm     64 % 0.00 in 0.0 W/m2 SCT
02:58 48.0 °F 36.8 °F 30.35 in Calm     65 % 0.00 in 0.0 W/m2 SCT
03:03 47.8 °F 36.6 °F 30.35 in Calm     65 % 0.00 in 0.0 W/m2 SCT
03:08 47.5 °F 36.3 °F 30.35 in Calm   1.2 mph 65 % 0.00 in 0.0 W/m2 SCT
03:13 47.3 °F 36.5 °F 30.35 in Calm     66 % 0.00 in 0.0 W/m2 SCT
03:18 47.2 °F 36.4 °F 30.35 in Calm     66 % 0.00 in 0.0 W/m2 SCT
03:23 47.2 °F 36.4 °F 30.36 in Calm     66 % 0.00 in 0.0 W/m2 SCT
03:28 46.8 °F 36.0 °F 30.36 in Calm     66 % 0.00 in 0.0 W/m2 SCT
03:33 46.7 °F 36.3 °F 30.36 in Calm     67 % 0.00 in 0.0 W/m2 SCT
03:38 46.5 °F 36.1 °F 30.36 in Calm     67 % 0.00 in 0.0 W/m2 SCT
03:43 46.3 °F 35.9 °F 30.36 in Calm   1.2 mph 67 % 0.00 in 0.0 W/m2 SCT
03:48 46.1 °F 35.7 °F 30.35 in North 0.3 mph 4.0 mph 67 % 0.00 in 0.0 W/m2 SCT
03:53 46.2 °F 35.8 °F 30.36 in North 0.1 mph 2.0 mph 67 % 0.00 in 0.0 W/m2 SCT
03:58 46.2 °F 35.8 °F 30.36 in Calm   3.5 mph 67 % 0.00 in 0.0 W/m2 SCT
04:03 46.2 °F 35.5 °F 30.36 in NW 3.0 mph 4.0 mph 66 % 0.00 in 0.0 W/m2 SCT
04:08 46.2 °F 35.5 °F 30.36 in North 3.7 mph 3.7 mph 66 % 0.00 in 0.0 W/m2 SCT
04:13 46.2 °F 35.5 °F 30.36 in North 3.5 mph 5.0 mph 66 % 0.00 in 0.0 W/m2 SCT
04:18 46.3 °F 35.2 °F 30.36 in NW 1.3 mph 8.1 mph 65 % 0.00 in 0.0 W/m2 SCT
04:23 46.3 °F 35.2 °F 30.36 in North 3.1 mph 8.0 mph 65 % 0.00 in 0.0 W/m2 SCT
04:28 46.4 °F 34.9 °F 30.36 in NW 3.8 mph 5.8 mph 64 % 0.00 in 0.0 W/m2 SCT
04:33 46.2 °F 34.7 °F 30.36 in NW 2.5 mph 8.1 mph 64 % 0.00 in 0.0 W/m2 SCT
04:38 46.0 °F 34.5 °F 30.36 in Calm     64 % 0.00 in 0.0 W/m2 SCT
04:43 45.8 °F 34.3 °F 30.36 in NW 1.3 mph 3.5 mph 64 % 0.00 in 0.0 W/m2 SCT
04:49 45.7 °F 34.6 °F 30.36 in Calm     65 % 0.00 in 0.0 W/m2 SCT
04:54 45.5 °F 34.4 °F 30.36 in Calm     65 % 0.00 in 0.0 W/m2 SCT
04:59 45.3 °F 34.2 °F 30.36 in Calm     65 % 0.00 in 0.0 W/m2 SCT
05:04 45.3 °F 34.2 °F 30.36 in Calm     65 % 0.00 in 0.0 W/m2 SCT
05:09 45.1 °F 34.0 °F 30.37 in Calm     65 % 0.00 in 0.0 W/m2 SCT
05:14 45.2 °F 34.1 °F 30.37 in Calm     65 % 0.00 in 0.0 W/m2 SCT
05:15 45.3 °F 34.2 °F 30.37 in Calm     65 % 0.00 in 0.0 W/m2 SCT
05:20 45.3 °F 34.2 °F 30.37 in Calm     65 % 0.00 in 0.0 W/m2 SCT
05:25 45.1 °F 34.0 °F 30.37 in Calm     65 % 0.00 in 0.0 W/m2 SCT
05:30 45.0 °F 33.9 °F 30.37 in Calm     65 % 0.00 in 0.0 W/m2 SCT
05:35 45.0 °F 33.9 °F 30.37 in Calm     65 % 0.00 in 0.0 W/m2 SCT
05:40 44.9 °F 33.8 °F 30.37 in Calm     65 % 0.00 in 0.0 W/m2 SCT
05:45 44.9 °F 34.2 °F 30.38 in Calm     66 % 0.00 in 0.0 W/m2 SCT
05:50 44.6 °F 33.9 °F 30.38 in Calm     66 % 0.00 in 0.0 W/m2 SCT
05:55 44.1 °F 33.5 °F 30.38 in Calm     66 % 0.00 in 0.0 W/m2 SCT
06:00 44.0 °F 33.7 °F 30.38 in Calm     67 % 0.00 in 0.0 W/m2 SCT
06:05 43.9 °F 33.6 °F 30.38 in NW 0.1 mph 2.3 mph 67 % 0.00 in 0.0 W/m2 SCT
06:10 43.8 °F 33.6 °F 30.38 in Calm     67 % 0.00 in 0.0 W/m2 SCT
06:15 44.0 °F 34.1 °F 30.38 in Calm     68 % 0.00 in 0.0 W/m2 SCT
06:20 44.0 °F 34.1 °F 30.38 in Calm     68 % 0.00 in 0.0 W/m2 SCT
06:25 43.8 °F 33.9 °F 30.38 in Calm     68 % 0.00 in 5.0 W/m2 SCT
06:30 43.9 °F 34.0 °F 30.38 in Calm     68 % 0.00 in 7.0 W/m2 SCT
06:35 44.0 °F 34.1 °F 30.39 in Calm     68 % 0.00 in 12.0 W/m2 SCT
06:40 44.0 °F 34.1 °F 30.39 in Calm     68 % 0.00 in 14.0 W/m2 SCT
06:45 44.1 °F 34.2 °F 30.39 in Calm     68 % 0.00 in 14.0 W/m2 SCT
06:50 44.0 °F 34.1 °F 30.39 in Calm     68 % 0.00 in 14.0 W/m2 SCT
06:55 44.3 °F 34.0 °F 30.40 in Calm     67 % 0.00 in 12.0 W/m2 SCT
07:00 44.3 °F 34.0 °F 30.40 in Calm     67 % 0.00 in 12.0 W/m2 SCT
07:05 44.3 °F 34.0 °F 30.40 in Calm     67 % 0.00 in 18.0 W/m2 SCT
07:10 44.2 °F 34.3 °F 30.40 in Calm     68 % 0.00 in 25.0 W/m2 SCT
07:15 44.1 °F 34.2 °F 30.40 in Calm     68 % 0.00 in 37.0 W/m2 SCT
07:20 44.1 °F 34.2 °F 30.41 in Calm     68 % 0.00 in 69.0 W/m2 FEW
07:25 44.5 °F 34.6 °F 30.41 in WNW 0.2 mph 2.3 mph 68 % 0.00 in 77.0 W/m2 FEW
07:30 44.8 °F 34.9 °F 30.41 in Calm     68 % 0.00 in 88.0 W/m2 CLR
07:35 45.1 °F 34.8 °F 30.41 in WNW 0.2 mph   67 % 0.00 in 102.0 W/m2 FEW
07:40 45.6 °F 34.9 °F 30.41 in Calm     66 % 0.00 in 102.0 W/m2 FEW
07:45 45.7 °F 35.0 °F 30.41 in Calm     66 % 0.00 in 109.0 W/m2 FEW
07:55 46.8 °F 34.9 °F 30.41 in NW 2.8 mph 4.6 mph 63 % 0.00 in 105.0 W/m2 BKN
08:00 47.1 °F 35.1 °F 30.40 in NW 2.6 mph 4.6 mph 63 % 0.00 in 120.0 W/m2 SCT
08:05 47.4 °F 34.6 °F 30.41 in North 4.6 mph 9.2 mph 61 % 0.00 in 197.0 W/m2 FEW
08:10 47.8 °F 35.0 °F 30.40 in WNW 1.8 mph 7.0 mph 61 % 0.00 in 174.0 W/m2 FEW
08:15 48.1 °F 34.9 °F 30.40 in NW 7.2 mph 10.4 mph 60 % 0.00 in 181.0 W/m2 FEW
08:20 48.4 °F 35.6 °F 30.40 in NW 1.7 mph 5.0 mph 61 % 0.00 in 301.0 W/m2 CLR
08:25 48.6 °F 34.9 °F 30.40 in NW 3.3 mph 4.6 mph 59 % 0.00 in 202.0 W/m2 CLR
08:30 48.3 °F 34.6 °F 30.40 in NW 6.6 mph 9.2 mph 59 % 0.00 in 283.0 W/m2 FEW
08:35 48.5 °F 34.8 °F 30.41 in NNW 5.0 mph 10.4 mph 59 % 0.00 in 373.0 W/m2 CLR
08:40 49.1 °F 35.4 °F 30.41 in North 5.3 mph 13.0 mph 59 % 0.00 in 330.0 W/m2 CLR
08:46 49.1 °F 34.9 °F 30.40 in NNW 9.4 mph 12.7 mph 58 % 0.00 in 322.0 W/m2 CLR
08:51 49.4 °F 35.7 °F 30.40 in NW 4.5 mph 9.2 mph 59 % 0.00 in 388.0 W/m2 CLR
08:56 49.7 °F 35.9 °F 30.40 in North 7.0 mph 11.5 mph 59 % 0.00 in 244.0 W/m2 FEW
09:01 49.2 °F 35.0 °F 30.40 in NW 7.4 mph 13.8 mph 58 % 0.00 in 301.0 W/m2 FEW
09:06 49.5 °F 35.3 °F 30.41 in North 8.6 mph 13.8 mph 58 % 0.00 in 364.0 W/m2 CLR
09:11 49.6 °F 35.0 °F 30.40 in NNW 4.4 mph 8.1 mph 57 % 0.00 in 236.0 W/m2 FEW
09:16 49.5 °F 35.3 °F 30.41 in NNW 2.2 mph 3.5 mph 58 % 0.00 in 229.0 W/m2 SCT
09:21 49.3 °F 34.7 °F 30.41 in North 6.7 mph 10.0 mph 57 % 0.00 in 243.0 W/m2 SCT
09:26 49.2 °F 34.6 °F 30.41 in North 5.5 mph 9.2 mph 57 % 0.00 in 237.0 W/m2 SCT
09:31 49.4 °F 35.2 °F 30.41 in NNW 6.7 mph 13.8 mph 58 % 0.00 in 316.0 W/m2 FEW
09:36 49.8 °F 35.2 °F 30.41 in NNW 4.8 mph 8.1 mph 57 % 0.00 in 366.0 W/m2 FEW
09:41 50.0 °F 34.5 °F 30.41 in NW 7.0 mph 11.5 mph 55 % 0.00 in 225.0 W/m2 SCT
09:46 50.1 °F 35.0 °F 30.41 in NNW 3.5 mph 8.1 mph 56 % 0.00 in 522.0 W/m2 CLR
09:51 50.7 °F 35.1 °F 30.41 in NNW 6.1 mph 12.7 mph 55 % 0.00 in 515.0 W/m2 CLR
09:56 51.5 °F 35.4 °F 30.41 in NNW 9.3 mph 13.8 mph 54 % 0.00 in 540.0 W/m2 CLR
10:01 51.9 °F 35.8 °F 30.41 in NW 3.6 mph 10.4 mph 54 % 0.00 in 594.0 W/m2 CLR
10:06 52.3 °F 34.7 °F 30.41 in NW 6.6 mph 11.5 mph 51 % 0.00 in 476.0 W/m2 CLR
10:11 51.6 °F 34.0 °F 30.41 in NNW 8.3 mph 11.5 mph 51 % 0.00 in 645.0 W/m2 CLR
10:16 52.2 °F 35.6 °F 30.41 in North 5.5 mph 8.1 mph 53 % 0.00 in 613.0 W/m2 CLR
10:21 52.4 °F 35.8 °F 30.41 in NNW 3.3 mph 6.9 mph 53 % 0.00 in 606.0 W/m2 CLR
10:26 52.9 °F 35.2 °F 30.41 in North 6.0 mph 11.5 mph 51 % 0.00 in 770.0 W/m2 CLR
10:31 53.7 °F 37.0 °F 30.41 in NW 5.8 mph 9.2 mph 53 % 0.00 in 809.0 W/m2 CLR
10:32 53.9 °F 36.7 °F 30.41 in North 3.1 mph 9.2 mph 52 % 0.00 in 809.0 W/m2 CLR
10:37 53.2 °F 36.5 °F 30.41 in North 4.6 mph 10.4 mph 53 % 0.00 in 867.0 W/m2 CLR
10:42 52.6 °F 35.5 °F 30.40 in NE 2.5 mph 5.8 mph 52 % 0.00 in 633.0 W/m2 CLR
10:47 53.0 °F 35.3 °F 30.41 in NNE 5.6 mph 10.4 mph 51 % 0.00 in 775.0 W/m2 CLR
10:52 53.6 °F 35.4 °F 30.41 in North 5.9 mph 12.7 mph 50 % 0.00 in 844.0 W/m2 CLR
10:57 54.2 °F 35.4 °F 30.41 in NNW 4.8 mph 9.2 mph 49 % 0.00 in 668.0 W/m2 CLR
11:02 54.2 °F 36.9 °F 30.42 in NNW 2.5 mph 4.0 mph 52 % 0.00 in 728.0 W/m2 CLR
11:07 53.6 °F 35.4 °F 30.41 in NW 7.6 mph 15.0 mph 50 % 0.00 in 703.0 W/m2 CLR
11:12 53.7 °F 35.0 °F 30.41 in NW 8.2 mph 13.8 mph 49 % 0.00 in 831.0 W/m2 CLR
11:17 54.3 °F 35.5 °F 30.41 in NW 6.2 mph 11.5 mph 49 % 0.00 in 814.0 W/m2 CLR
11:18 54.3 °F 35.5 °F 30.41 in NW 7.4 mph 9.2 mph 49 % 0.00 in 833.0 W/m2 CLR
11:23 54.6 °F 36.3 °F 30.41 in North 7.9 mph 9.2 mph 50 % 0.00 in 833.0 W/m2 CLR
11:28 54.6 °F 35.3 °F 30.41 in WNW 7.2 mph 11.5 mph 48 % 0.00 in 840.0 W/m2 CLR
11:33 54.3 °F 33.9 °F 30.41 in NW 5.7 mph 13.0 mph 46 % 0.00 in 846.0 W/m2 CLR
11:38 54.8 °F 36.0 °F 30.41 in NW 10.1 mph 11.5 mph 49 % 0.00 in 870.0 W/m2 CLR
11:43 55.4 °F 35.5 °F 30.41 in NNW 6.0 mph 12.7 mph 47 % 0.00 in 868.0 W/m2 CLR
11:48 55.7 °F 37.3 °F 30.40 in North 2.3 mph 4.0 mph 50 % 0.00 in 875.0 W/m2 CLR
11:53 56.9 °F 35.8 °F 30.41 in West 6.0 mph 10.0 mph 45 % 0.00 in 881.0 W/m2 CLR
11:58 56.1 °F 35.0 °F 30.40 in North 4.6 mph 11.5 mph 45 % 0.00 in 889.0 W/m2 CLR
12:03 57.1 °F 36.5 °F 30.40 in NW 5.7 mph 8.1 mph 46 % 0.00 in 895.0 W/m2 CLR
12:08 57.0 °F 36.4 °F 30.39 in WNW 5.0 mph 8.1 mph 46 % 0.00 in 900.0 W/m2 CLR
12:13 57.1 °F 35.9 °F 30.39 in NNW 3.3 mph 10.0 mph 45 % 0.00 in 902.0 W/m2 CLR
12:18 57.6 °F 36.4 °F 30.39 in NNW 7.3 mph 11.5 mph 45 % 0.00 in 907.0 W/m2 CLR
12:23 57.4 °F 35.6 °F 30.39 in WNW 6.9 mph 10.4 mph 44 % 0.00 in 912.0 W/m2 CLR
12:28 57.6 °F 35.2 °F 30.39 in NNW 6.4 mph 6.4 mph 43 % 0.00 in 914.0 W/m2 CLR
12:33 57.9 °F 35.5 °F 30.38 in North 7.9 mph 13.8 mph 43 % 0.00 in 919.0 W/m2 CLR
12:38 57.9 °F 35.5 °F 30.38 in WNW 6.6 mph 12.7 mph 43 % 0.00 in 918.0 W/m2 CLR
12:43 58.6 °F 35.0 °F 30.38 in NW 10.1 mph 11.5 mph 41 % 0.00 in 919.0 W/m2 CLR
12:48 59.0 °F 35.9 °F 30.38 in North 4.2 mph 9.2 mph 42 % 0.00 in 918.0 W/m2 CLR
12:53 58.8 °F 36.3 °F 30.38 in NNE 6.0 mph 9.2 mph 43 % 0.00 in 919.0 W/m2 CLR
12:59 58.7 °F 35.0 °F 30.37 in North 6.3 mph 11.5 mph 41 % 0.00 in 921.0 W/m2 CLR
13:04 59.6 °F 35.2 °F 30.37 in North 6.9 mph 11.5 mph 40 % 0.00 in 925.0 W/m2 CLR
13:09 59.7 °F 36.6 °F 30.37 in NNE 2.5 mph 9.2 mph 42 % 0.00 in 923.0 W/m2 CLR
13:14 59.8 °F 36.0 °F 30.37 in West 4.3 mph 8.1 mph 41 % 0.00 in 926.0 W/m2 CLR
13:19 60.3 °F 36.5 °F 30.37 in North 6.6 mph 11.5 mph 41 % 0.00 in 919.0 W/m2 CLR
13:24 60.3 °F 36.5 °F 30.37 in NW 4.2 mph 8.1 mph 41 % 0.00 in 916.0 W/m2 CLR
13:29 60.1 °F 34.4 °F 30.37 in North 4.6 mph 11.5 mph 38 % 0.00 in 916.0 W/m2 CLR
13:34 60.6 °F 36.8 °F 30.37 in NNE 8.2 mph 12.7 mph 41 % 0.00 in 912.0 W/m2 CLR
13:39 60.0 °F 35.0 °F 30.37 in WNW 5.0 mph 10.4 mph 39 % 0.00 in 914.0 W/m2 CLR
13:44 61.5 °F 35.0 °F 30.37 in NNW 9.8 mph 11.5 mph 37 % 0.00 in 904.0 W/m2 CLR
13:49 61.4 °F 35.5 °F 30.36 in NNW 10.9 mph 17.3 mph 38 % 0.00 in 907.0 W/m2 CLR
13:54 61.6 °F 35.1 °F 30.36 in NNW 5.9 mph 9.2 mph 37 % 0.00 in 863.0 W/m2 CLR
13:59 62.5 °F 35.9 °F 30.36 in NW 8.0 mph 15.0 mph 37 % 0.00 in 911.0 W/m2 CLR
14:04 62.6 °F 35.9 °F 30.37 in NW 5.1 mph 9.2 mph 37 % 0.00 in 925.0 W/m2 CLR
14:09 61.6 °F 35.7 °F 30.36 in NNE 9.8 mph 11.5 mph 38 % 0.00 in 816.0 W/m2 CLR
14:14 62.1 °F 33.4 °F 30.36 in NW 8.1 mph 10.4 mph 34 % 0.00 in 554.0 W/m2 FEW
14:19 61.7 °F 34.5 °F 30.36 in NW 4.9 mph 9.2 mph 36 % 0.00 in 868.0 W/m2 FEW
14:24 62.1 °F 36.2 °F 30.36 in NW 5.0 mph 12.0 mph 38 % 0.00 in 759.0 W/m2 CLR
14:29 61.3 °F 34.1 °F 30.35 in North 2.5 mph 4.6 mph 36 % 0.00 in 823.0 W/m2 CLR
14:34 62.0 °F 35.4 °F 30.35 in North 7.0 mph 13.0 mph 37 % 0.00 in 824.0 W/m2 CLR
14:39 62.6 °F 36.6 °F 30.35 in North 6.0 mph 13.0 mph 38 % 0.00 in 698.0 W/m2 CLR
14:44 63.2 °F 35.8 °F 30.35 in NW 10.4 mph 13.8 mph 36 % 0.00 in 861.0 W/m2 CLR
14:49 62.6 °F 35.3 °F 30.35 in NW 3.0 mph 12.0 mph 36 % 0.00 in 879.0 W/m2 CLR
14:54 62.1 °F 34.1 °F 30.35 in North 2.6 mph 3.5 mph 35 % 0.00 in 793.0 W/m2 CLR
14:59 62.0 °F 34.0 °F 30.35 in WNW 0.6 mph 3.5 mph 35 % 0.00 in 821.0 W/m2 CLR
15:04 63.0 °F 34.9 °F 30.34 in NW 4.4 mph 8.1 mph 35 % 0.00 in 555.0 W/m2 CLR
15:09 62.4 °F 35.1 °F 30.34 in NNW 3.0 mph 6.0 mph 36 % 0.00 in 812.0 W/m2 CLR
15:14 62.8 °F 35.4 °F 30.34 in NNE 4.7 mph 6.9 mph 36 % 0.00 in 842.0 W/m2 CLR
15:19 64.0 °F 35.8 °F 30.34 in North 5.7 mph 11.5 mph 35 % 0.00 in 842.0 W/m2 CLR
15:20 64.1 °F 35.1 °F 30.34 in NNE 5.6 mph 11.5 mph 34 % 0.00 in 842.0 W/m2 CLR
15:25 64.2 °F 32.9 °F 30.34 in NNE 10.8 mph 15.0 mph 31 % 0.00 in 610.0 W/m2 CLR
15:30 63.8 °F 34.1 °F 30.34 in North 8.2 mph 11.5 mph 33 % 0.00 in 689.0 W/m2 CLR
15:35 63.4 °F 33.8 °F 30.34 in NNW 9.5 mph 15.0 mph 33 % 0.00 in 584.0 W/m2 CLR
15:40 63.0 °F 33.4 °F 30.34 in North 8.3 mph 13.8 mph 33 % 0.00 in 418.0 W/m2 FEW
15:45 62.0 °F 33.3 °F 30.34 in NNW 6.9 mph 11.5 mph 34 % 0.00 in 374.0 W/m2 SCT
15:50 62.1 °F 32.6 °F 30.35 in NW 9.6 mph 13.8 mph 33 % 0.00 in 390.0 W/m2 FEW
15:55 61.9 °F 33.2 °F 30.35 in NW 5.3 mph 10.4 mph 34 % 0.00 in 329.0 W/m2 SCT
16:00 61.9 °F 33.9 °F 30.34 in North 4.1 mph 8.1 mph 35 % 0.00 in 323.0 W/m2 SCT
16:05 61.6 °F 32.9 °F 30.35 in North 6.9 mph 11.5 mph 34 % 0.00 in 446.0 W/m2 FEW
16:10 62.2 °F 33.5 °F 30.35 in NNW 5.3 mph 11.0 mph 34 % 0.00 in 455.0 W/m2 CLR
16:15 62.1 °F 33.4 °F 30.34 in NW 6.4 mph 13.8 mph 34 % 0.00 in 429.0 W/m2 FEW
16:20 61.9 °F 33.2 °F 30.33 in North 5.1 mph 10.4 mph 34 % 0.00 in 345.0 W/m2 CLR
16:25 61.7 °F 32.3 °F 30.33 in NNW 3.9 mph 8.1 mph 33 % 0.00 in 380.0 W/m2 SCT
16:30 61.6 °F 32.9 °F 30.33 in NNW 4.3 mph 5.8 mph 34 % 0.00 in 248.0 W/m2 BKN
16:35 61.5 °F 34.3 °F 30.34 in NNW 4.7 mph 9.2 mph 36 % 0.00 in 264.0 W/m2 SCT
16:40 61.2 °F 32.6 °F 30.34 in NNW 3.5 mph 8.1 mph 34 % 0.00 in 234.0 W/m2 BKN
16:45 61.2 °F 32.6 °F 30.34 in WNW 5.7 mph 9.2 mph 34 % 0.00 in 236.0 W/m2 BKN
16:50 61.0 °F 32.4 °F 30.34 in NW 6.8 mph 11.5 mph 34 % 0.00 in 230.0 W/m2 SCT
16:55 60.8 °F 30.7 °F 30.34 in North 6.8 mph 9.2 mph 32 % 0.00 in 237.0 W/m2 SCT
17:00 60.6 °F 31.3 °F 30.34 in NW 9.5 mph 12.7 mph 33 % 0.00 in 200.0 W/m2 BKN
17:05 60.4 °F 31.9 °F 30.34 in North 6.8 mph 8.1 mph 34 % 0.00 in 176.0 W/m2 BKN
17:10 60.1 °F 31.6 °F 30.34 in NNW 2.9 mph 8.1 mph 34 % 0.00 in 169.0 W/m2 BKN
17:15 60.2 °F 31.7 °F 30.34 in North 5.7 mph 6.9 mph 34 % 0.00 in 200.0 W/m2 BKN
17:20 60.2 °F 31.7 °F 30.34 in NNW 8.3 mph 8.3 mph 34 % 0.00 in 230.0 W/m2 SCT
17:25 60.1 °F 31.6 °F 30.34 in North 6.3 mph 9.2 mph 34 % 0.00 in 260.0 W/m2 FEW
17:30 60.1 °F 31.6 °F 30.34 in North 4.9 mph 11.5 mph 34 % 0.00 in 216.0 W/m2 FEW
17:35 60.0 °F 31.5 °F 30.34 in NNW 4.0 mph 6.9 mph 34 % 0.00 in 151.0 W/m2 BKN
17:40 59.9 °F 32.2 °F 30.35 in North 2.6 mph 6.9 mph 35 % 0.00 in 148.0 W/m2 BKN
17:45 59.8 °F 31.3 °F 30.35 in NNW 6.4 mph 9.2 mph 34 % 0.00 in 146.0 W/m2 BKN
17:50 59.7 °F 31.3 °F 30.36 in NNW 5.6 mph 11.5 mph 34 % 0.00 in 160.0 W/m2 SCT
17:55 59.7 °F 32.0 °F 30.36 in North 5.2 mph 9.2 mph 35 % 0.00 in 137.0 W/m2 SCT
18:00 59.6 °F 31.9 °F 30.36 in NNW 2.9 mph 9.2 mph 35 % 0.00 in 77.0 W/m2 BKN
18:05 59.3 °F 30.9 °F 30.36 in North 4.5 mph 9.2 mph 34 % 0.00 in 60.0 W/m2 OVC
18:10 59.1 °F 30.7 °F 30.35 in NW 3.0 mph 8.1 mph 34 % 0.00 in 49.0 W/m2 OVC
18:15 59.0 °F 30.6 °F 30.35 in North 1.6 mph 4.0 mph 34 % 0.00 in 37.0 W/m2 OVC
18:20 58.9 °F 30.6 °F 30.35 in NNW 4.5 mph 5.8 mph 34 % 0.00 in 39.0 W/m2 OVC
18:26 58.9 °F 31.3 °F 30.35 in North 2.3 mph 4.6 mph 35 % 0.00 in 44.0 W/m2 OVC
18:31 59.1 °F 31.4 °F 30.35 in NNW 1.7 mph 6.0 mph 35 % 0.00 in 35.0 W/m2 OVC
18:36 59.0 °F 31.4 °F 30.35 in NW 2.9 mph 4.6 mph 35 % 0.00 in 33.0 W/m2 OVC
18:41 58.9 °F 30.6 °F 30.35 in NW 0.7 mph 3.5 mph 34 % 0.00 in 40.0 W/m2 BKN
18:46 58.6 °F 30.3 °F 30.35 in NNW 4.2 mph 8.1 mph 34 % 0.00 in 49.0 W/m2 BKN
18:51 58.6 °F 30.3 °F 30.35 in NNW 1.5 mph 5.8 mph 34 % 0.00 in 97.0 W/m2 CLR
18:56 58.7 °F 30.4 °F 30.36 in NW 7.1 mph 10.4 mph 34 % 0.00 in 97.0 W/m2 CLR
19:01 58.6 °F 29.6 °F 30.35 in NNW 5.4 mph 11.5 mph 33 % 0.00 in 47.0 W/m2 FEW
19:06 58.2 °F 29.2 °F 30.36 in NNE 5.4 mph 10.4 mph 33 % 0.00 in 32.0 W/m2 BKN
19:11 57.9 °F 28.9 °F 30.36 in NNE 4.1 mph 8.1 mph 33 % 0.00 in 21.0 W/m2 BKN
19:16 57.6 °F 28.7 °F 30.36 in North 1.0 mph 3.5 mph 33 % 0.00 in 12.0 W/m2 OVC
19:21 57.4 °F 28.5 °F 30.36 in North 3.4 mph 6.9 mph 33 % 0.00 in 7.0 W/m2 OVC
19:26 57.3 °F 28.4 °F 30.36 in North 1.9 mph 4.6 mph 33 % 0.00 in 0.0 W/m2 OVC
19:31 57.2 °F 27.6 °F 30.36 in North 6.7 mph 11.5 mph 32 % 0.00 in 0.0 W/m2 OVC
19:34 57.1 °F 25.1 °F 30.36 in NNE 5.5 mph 10.4 mph 29 % 0.00 in 0.0 W/m2 OVC
19:39 57.0 °F 25.0 °F 30.36 in North 6.4 mph 11.5 mph 29 % 0.00 in 0.0 W/m2 CLR
19:44 56.7 °F 22.2 °F 30.36 in NNW 2.8 mph 5.8 mph 26 % 0.00 in 0.0 W/m2 CLR
19:49 56.5 °F 21.1 °F 30.36 in North 3.9 mph 8.1 mph 25 % 0.00 in 0.0 W/m2 CLR
19:54 56.2 °F 21.7 °F 30.36 in NNW 3.7 mph 5.8 mph 26 % 0.00 in 0.0 W/m2 CLR
19:59 55.9 °F 22.4 °F 30.36 in North 4.4 mph 5.8 mph 27 % 0.00 in 0.0 W/m2 CLR
20:04 55.7 °F 22.2 °F 30.36 in NNE 3.1 mph 5.0 mph 27 % 0.00 in 0.0 W/m2 CLR
20:09 55.5 °F 22.9 °F 30.36 in North 3.1 mph 4.6 mph 28 % 0.00 in 0.0 W/m2 CLR
20:14 55.3 °F 22.7 °F 30.36 in NNW 1.8 mph 3.5 mph 28 % 0.00 in 0.0 W/m2 CLR
20:19 55.1 °F 22.5 °F 30.36 in NNE 1.8 mph 5.8 mph 28 % 0.00 in 0.0 W/m2 CLR
20:24 54.9 °F 21.5 °F 30.36 in North 7.3 mph 9.2 mph 27 % 0.00 in 0.0 W/m2 CLR
20:29 54.8 °F 20.5 °F 30.36 in NNE 7.7 mph 11.5 mph 26 % 0.00 in 0.0 W/m2 CLR
20:34 54.8 °F 19.6 °F 30.36 in North 5.0 mph 11.5 mph 25 % 0.00 in 0.0 W/m2 CLR
20:39 54.7 °F 20.4 °F 30.36 in NNW 5.1 mph 9.0 mph 26 % 0.00 in 0.0 W/m2 CLR
20:44 54.7 °F 21.3 °F 30.37 in North 3.0 mph 9.2 mph 27 % 0.00 in 0.0 W/m2 CLR
20:49 54.6 °F 22.1 °F 30.37 in NNE 4.3 mph 9.2 mph 28 % 0.00 in 0.0 W/m2 CLR
20:54 54.4 °F 21.9 °F 30.37 in NNE 5.2 mph 10.4 mph 28 % 0.00 in 0.0 W/m2 CLR
20:59 54.2 °F 20.9 °F 30.37 in NNE 6.1 mph 9.2 mph 27 % 0.00 in 0.0 W/m2 CLR
21:04 54.1 °F 21.7 °F 30.37 in NNE 3.1 mph 8.1 mph 28 % 0.00 in 0.0 W/m2 CLR
21:09 53.9 °F 21.5 °F 30.37 in NNE 0.7 mph 8.1 mph 28 % 0.00 in 0.0 W/m2 CLR
21:14 53.6 °F 22.1 °F 30.37 in North 1.9 mph 8.1 mph 29 % 0.00 in 0.0 W/m2 CLR
21:19 53.4 °F 22.7 °F 30.38 in North 4.7 mph 9.2 mph 30 % 0.00 in 0.0 W/m2 CLR
21:24 53.3 °F 22.6 °F 30.37 in NNE 2.1 mph 3.5 mph 30 % 0.00 in 0.0 W/m2 CLR
21:29 52.9 °F 23.0 °F 30.37 in NNE 3.7 mph 5.8 mph 31 % 0.00 in 0.0 W/m2 CLR
21:34 52.7 °F 23.6 °F 30.37 in North 0.9 mph 2.3 mph 32 % 0.00 in 0.0 W/m2 CLR
21:39 52.5 °F 23.5 °F 30.37 in North 0.4 mph 3.5 mph 32 % 0.00 in 0.0 W/m2 CLR
21:44 52.3 °F 24.0 °F 30.38 in NNW 1.1 mph 3.0 mph 33 % 0.00 in 0.0 W/m2 CLR
21:49 52.1 °F 24.6 °F 30.38 in NNW 1.4 mph 2.3 mph 34 % 0.00 in 0.0 W/m2 CLR
21:54 51.8 °F 25.0 °F 30.38 in North 0.1 mph 1.2 mph 35 % 0.00 in 0.0 W/m2 CLR
21:59 51.6 °F 24.8 °F 30.38 in Calm   3.5 mph 35 % 0.00 in 0.0 W/m2 CLR
22:04 51.5 °F 24.7 °F 30.38 in NNW 0.3 mph 4.0 mph 35 % 0.00 in 0.0 W/m2 CLR
22:09 51.5 °F 24.7 °F 30.38 in North 1.8 mph 3.5 mph 35 % 0.00 in 0.0 W/m2 CLR
22:14 51.3 °F 25.2 °F 30.38 in NNW 0.8 mph 3.5 mph 36 % 0.00 in 0.0 W/m2 CLR
22:19 51.1 °F 25.7 °F 30.38 in North 1.0 mph 3.0 mph 37 % 0.00 in 0.0 W/m2 CLR
22:24 51.1 °F 25.7 °F 30.38 in North 0.9 mph 3.5 mph 37 % 0.00 in 0.0 W/m2 CLR
22:29 51.0 °F 25.6 °F 30.38 in Calm   2.3 mph 37 % 0.00 in 0.0 W/m2 CLR
22:34 50.7 °F 25.3 °F 30.38 in NNW 0.8 mph 3.5 mph 37 % 0.00 in 0.0 W/m2 CLR
22:39 50.4 °F 25.7 °F 30.39 in NNW 0.6 mph 3.5 mph 38 % 0.00 in 0.0 W/m2 CLR
22:44 50.1 °F 25.5 °F 30.38 in NNW 0.3 mph 1.0 mph 38 % 0.00 in 0.0 W/m2 CLR
22:49 50.0 °F 26.0 °F 30.39 in NNW 1.0 mph 3.5 mph 39 % 0.00 in 0.0 W/m2 CLR
22:54 49.9 °F 26.5 °F 30.38 in NNW 0.1 mph 1.0 mph 40 % 0.00 in 0.0 W/m2 CLR
22:59 49.9 °F 25.9 °F 30.38 in Calm   1.2 mph 39 % 0.00 in 0.0 W/m2 CLR
23:04 49.7 °F 25.7 °F 30.38 in NNW 0.6 mph   39 % 0.00 in 0.0 W/m2 CLR
23:09 49.5 °F 26.1 °F 30.38 in NNW 0.1 mph   40 % 0.00 in 0.0 W/m2 CLR
23:14 49.4 °F 26.7 °F 30.38 in North 0.2 mph 1.2 mph 41 % 0.00 in 0.0 W/m2 CLR
23:19 49.3 °F 26.6 °F 30.39 in Calm     41 % 0.00 in 0.0 W/m2 CLR
23:24 49.2 °F 26.5 °F 30.39 in Calm     41 % 0.00 in 0.0 W/m2 CLR
23:29 49.1 °F 26.4 °F 30.39 in North 0.1 mph   41 % 0.00 in 0.0 W/m2 CLR
23:34 49.0 °F 26.3 °F 30.39 in Calm     41 % 0.00 in 0.0 W/m2 CLR
23:39 49.0 °F 26.3 °F 30.39 in Calm     41 % 0.00 in 0.0 W/m2 CLR
23:44 48.9 °F 26.2 °F 30.39 in Calm     41 % 0.00 in 0.0 W/m2 CLR
23:49 48.6 °F 25.9 °F 30.39 in Calm     41 % 0.00 in 0.0 W/m2 CLR
23:54 48.1 °F 26.6 °F 30.39 in Calm     43 % 0.00 in 0.0 W/m2 CLR
23:59 48.0 °F 26.5 °F 30.39 in Calm     43 % 0.00 in 0.0 W/m2 CLR
Air Products Campus Weather
Compliments of Weather Underground - 3.5 mb